Drummond, MT (59832)

2:20 PM MST on January 31, 2015 (GMT -0700)
Timberline Drive | Change Station
CLOSE
Current Station
Personal Weather Station
Location: Gold Creek, MT
Elevation: 4872 ft
Nearby Weather Stations

Elev 4872 ft 46.52 °N, 112.98 °W | Updated 1 second ago

Overcast
Overcast
27.8 °F
Feels Like 20 °F
N
7.0
Wind Variable Wind from SSW
Gusts 7.0 mph

Today
High -- | Low -- °F
--% Chance of Precip.
Yesterday
High -- | Low -- °F
Precip. -- in
7:58 AM 5:34 PM
Waxing Gibbous, 91% visible
Pressure 30.13 in
Visibility 10.0 miles
Clouds Mostly Cloudy 5500 ft
Windchill 20 °F
Dew Point 19 °F
Humidity 68%
Rainfall 0.00 in
Snow Depth Not available.
UV 1 out of 12
Pollen .30 out of 12
Air Quality Not available.
Flu Activity Not available.
SPECI KMSO 312113Z 02015KT 10SM BKN055 04/M04 A3013 RMK AO2 WSHFT 2053 T00441039

More Conditions Fewer Conditions

Pressure 30.13 in
Visibility 10.0 miles
Clouds Mostly Cloudy 5500 ft
Windchill 20 °F
Dew Point 19 °F
Humidity 68%
Rainfall 0.00 in
Snow Depth Not available.
UV 1 out of 12
Pollen .30 out of 12
Air Quality Not available.
Flu Activity Not available.
SPECI KMSO 312113Z 02015KT 10SM BKN055 04/M04 A3013 RMK AO2 WSHFT 2053 T00441039

More Conditions Fewer Conditions

10-Day Weather Forecast

Almanac

Astronomy

Jan. 31, 2015 Rise Set
Actual Time
Civil Twilight
Nautical Twilight
Astronomical Twilight
Moon
Length of Visible Light
Length of Day
Tomorrow will be .
, % of the Moon is Illuminated

Today's Extremes

State Highs State Lows

Community

WunderPhotos

Upload Photos

1,792,209 photos uploaded!

WunderBlogs® & News

Nearby

Air Quality

  Air Quality AQ Index Pollutant
Not available.

Snow Depth

Station Depth Elevation

Earthquake Activity

City Distance Mag. Time & Date
Minimum magnitude displayed is 2.5.

Coastal Water Temperatures

Place Temperature

Nearby Weather Stations